Saint Marys City, Maryland
Current Conditions -  °F | °C
As of 12:53 PM on Friday 24 Oct 2014 (Local Time) from KNUI Reporting Station
Clear Clear  
Wind Chill: 19°   Ceiling: Unl
Heat Index: 19°   Visibility: 10mi
Dew Point:   Wind: 10mph
Humidity: 42%   Direction: 290°WNW
Pressure: 29.92"   Gusts: NA
Location:  38.19°N, 76.43°W
Report Text: KNUI 241653Z AUTO 29009KT 10SM CLR 19/06 A2992 RMK AO2 SLP130 T01940061 $
Loading
Personal Weather Stations






























Interactive Weather Map
Tropical Storm Tracking
New forecast layout! Learn more

10-Day Weather Forecast

Advertisements
Track Severe Weather on mobile